createdAt,value
2023-03-30T00:01:22.137Z,-89
2023-03-30T00:03:55.574Z,-90
2023-03-30T00:06:24.561Z,-89
2023-03-30T00:08:57.493Z,-88
2023-03-30T00:11:27.810Z,-89
2023-03-30T00:13:56.747Z,-89
2023-03-30T00:16:25.493Z,-89
2023-03-30T00:18:55.897Z,-89
2023-03-30T00:21:25.093Z,-91
2023-03-30T00:23:53.954Z,-89
2023-03-30T00:26:22.932Z,-89
2023-03-30T00:28:51.637Z,-89
2023-03-30T00:31:20.761Z,-90
2023-03-30T00:33:49.610Z,-90
2023-03-30T00:36:20.086Z,-90
2023-03-30T00:38:49.544Z,-89
2023-03-30T00:41:18.411Z,-89
2023-03-30T00:44:03.049Z,-89
2023-03-30T00:46:33.753Z,-89
2023-03-30T00:49:07.662Z,-88
2023-03-30T00:51:43.876Z,-89
2023-03-30T00:54:18.333Z,-89
2023-03-30T00:56:47.815Z,-89
2023-03-30T00:59:16.778Z,-89
2023-03-30T01:01:50.384Z,-88
2023-03-30T01:04:19.550Z,-89
2023-03-30T01:06:52.404Z,-89
2023-03-30T01:09:22.930Z,-90
2023-03-30T01:11:51.909Z,-88
2023-03-30T01:14:20.837Z,-89
2023-03-30T01:17:03.725Z,-89
2023-03-30T01:20:16.612Z,-89
2023-03-30T01:23:27.389Z,-87
2023-03-30T01:26:46.190Z,-89
2023-03-30T01:29:30.449Z,-90
2023-03-30T01:32:48.065Z,-89
2023-03-30T01:35:35.342Z,-89
2023-03-30T01:38:50.812Z,-88
2023-03-30T01:41:36.481Z,-89
2023-03-30T01:44:16.634Z,-90
2023-03-30T01:46:53.180Z,-90
2023-03-30T01:49:31.123Z,-89
2023-03-30T01:52:10.342Z,-90
2023-03-30T01:54:45.866Z,-89
2023-03-30T01:57:20.729Z,-90
2023-03-30T01:59:57.584Z,-90
2023-03-30T02:02:33.746Z,-88
2023-03-30T02:05:06.537Z,-89
2023-03-30T02:07:39.810Z,-90
2023-03-30T02:10:12.511Z,-90
2023-03-30T02:12:43.848Z,-90
2023-03-30T02:15:16.025Z,-90
2023-03-30T02:17:47.612Z,-88
2023-03-30T02:20:17.801Z,-88
2023-03-30T02:22:47.707Z,-91
2023-03-30T02:25:17.639Z,-89
2023-03-30T02:27:48.625Z,-89
2023-03-30T02:30:18.783Z,-89
2023-03-30T02:32:53.963Z,-89
2023-03-30T02:35:44.032Z,-89
2023-03-30T02:38:47.209Z,-89
2023-03-30T02:41:36.155Z,-89
2023-03-30T02:44:27.383Z,-89
2023-03-30T02:47:09.697Z,-89
2023-03-30T02:50:00.192Z,-90
2023-03-30T02:52:53.529Z,-90
2023-03-30T02:55:35.791Z,-89
2023-03-30T02:58:13.647Z,-88
2023-03-30T03:00:52.258Z,-89
2023-03-30T03:03:27.915Z,-89
2023-03-30T03:05:57.525Z,-89
2023-03-30T03:08:28.295Z,-88
2023-03-30T03:10:58.705Z,-88
2023-03-30T03:13:28.211Z,-86
2023-03-30T03:16:04.092Z,-92
2023-03-30T03:18:41.942Z,-91
2023-03-30T03:21:23.106Z,-93
2023-03-30T03:24:04.818Z,-93
2023-03-30T03:26:38.256Z,-92
2023-03-30T03:29:07.503Z,-91
2023-03-30T03:31:38.305Z,-92
2023-03-30T03:34:09.921Z,-92
2023-03-30T03:36:42.156Z,-92
2023-03-30T03:39:13.714Z,-92
2023-03-30T03:42:17.335Z,-93
2023-03-30T03:44:53.029Z,-91
2023-03-30T03:47:26.046Z,-91
2023-03-30T03:49:55.075Z,-91
2023-03-30T03:52:26.071Z,-91
2023-03-30T03:54:58.966Z,-93
2023-03-30T03:57:31.817Z,-93
2023-03-30T04:00:03.677Z,-93
2023-03-30T04:02:49.646Z,-93
2023-03-30T09:00:20.759Z,-92
2023-03-30T09:03:08.526Z,-93
2023-03-30T09:05:47.163Z,-92
2023-03-30T09:08:22.919Z,-90
2023-03-30T09:10:59.654Z,-90
2023-03-30T09:13:34.166Z,-92
2023-03-30T09:16:29.731Z,-91
2023-03-30T09:19:03.439Z,-91
2023-03-30T09:21:35.370Z,-91
2023-03-30T09:24:38.386Z,-91
2023-03-30T09:27:33.870Z,-91
2023-03-30T09:30:22.148Z,-93
2023-03-30T09:34:00.357Z,-94
2023-03-30T09:44:03.991Z,-93
2023-03-30T09:46:51.075Z,-92
2023-03-30T09:49:33.851Z,-94
2023-03-30T09:52:28.201Z,-93
2023-03-30T09:55:23.973Z,-93
2023-03-30T09:58:12.359Z,-93
2023-03-30T10:00:48.886Z,-93
2023-03-30T10:03:34.316Z,-93
2023-03-30T10:06:13.399Z,-92
2023-03-30T10:08:50.820Z,-92
2023-03-30T10:11:56.562Z,-94
2023-03-30T10:14:35.296Z,-92
2023-03-30T10:17:07.176Z,-92
2023-03-30T10:19:53.466Z,-93
2023-03-30T10:22:54.085Z,-93
2023-03-30T10:25:25.824Z,-91
2023-03-30T10:28:03.010Z,-93
2023-03-30T10:30:32.952Z,-92
2023-03-30T10:33:15.881Z,-95
2023-03-30T10:36:00.835Z,-93
2023-03-30T10:38:35.772Z,-92
2023-03-30T10:41:15.101Z,-92
2023-03-30T10:43:46.103Z,-92
2023-03-30T10:46:20.415Z,-92
2023-03-30T10:49:09.331Z,-91
2023-03-30T10:51:59.635Z,-93
2023-03-30T10:54:39.218Z,-92
2023-03-30T10:57:14.262Z,-92
2023-03-30T11:00:22.981Z,-91
2023-03-30T11:03:03.593Z,-92
2023-03-30T11:05:37.084Z,-92
2023-03-30T11:08:23.581Z,-92
2023-03-30T11:10:59.435Z,-92
2023-03-30T11:13:35.241Z,-93
2023-03-30T11:16:46.829Z,-92
2023-03-30T11:19:26.591Z,-92
2023-03-30T11:22:07.522Z,-92
2023-03-30T11:24:37.420Z,-92
2023-03-30T11:27:17.630Z,-91
2023-03-30T11:29:53.530Z,-92
2023-03-30T11:32:34.488Z,-91
2023-03-30T11:35:14.044Z,-91
2023-03-30T11:37:54.653Z,-91
2023-03-30T11:40:28.120Z,-90
2023-03-30T11:42:58.892Z,-91
2023-03-30T11:45:50.831Z,-91
2023-03-30T11:48:43.300Z,-91
2023-03-30T11:51:30.191Z,-91
2023-03-30T11:54:16.181Z,-91
2023-03-30T11:56:52.184Z,-91
2023-03-30T11:59:34.606Z,-91
2023-03-30T12:02:20.975Z,-90
2023-03-30T12:04:58.962Z,-90
2023-03-30T12:07:38.286Z,-90
2023-03-30T12:10:16.829Z,-90
2023-03-30T12:12:49.444Z,-91
2023-03-30T12:15:35.427Z,-90
2023-03-30T12:18:17.225Z,-91
2023-03-30T12:20:55.241Z,-91
2023-03-30T12:23:40.909Z,-89
2023-03-30T12:26:27.361Z,-91
2023-03-30T12:29:52.462Z,-91
2023-03-30T12:32:20.266Z,-91
2023-03-30T12:34:49.474Z,-91
2023-03-30T12:37:23.362Z,-91
2023-03-30T12:40:00.333Z,-91
2023-03-30T12:42:35.691Z,-91
2023-03-30T12:45:33.269Z,-91
2023-03-30T12:48:28.441Z,-91
2023-03-30T12:51:14.961Z,-89
2023-03-30T12:54:14.225Z,-90
2023-03-30T12:56:58.121Z,-91
2023-03-30T13:00:05.345Z,-89
2023-03-30T13:03:16.848Z,-91
2023-03-30T13:05:51.572Z,-92
2023-03-30T13:08:32.573Z,-92
2023-03-30T13:11:14.548Z,-91
2023-03-30T13:13:56.993Z,-91
2023-03-30T13:16:50.025Z,-88
2023-03-30T13:19:29.135Z,-90
2023-03-30T13:22:05.102Z,-90
2023-03-30T13:24:47.847Z,-90
2023-03-30T13:27:33.157Z,-90
2023-03-30T13:30:08.292Z,-89
2023-03-30T13:33:13.048Z,-90
2023-03-30T13:36:00.252Z,-90
2023-03-30T13:39:10.036Z,-90
2023-03-30T13:41:54.690Z,-89
2023-03-30T13:44:43.055Z,-89
2023-03-30T13:47:34.366Z,-89
2023-03-30T13:50:08.669Z,-90
2023-03-30T13:52:46.178Z,-89
2023-03-30T13:55:24.110Z,-88
2023-03-30T13:58:01.147Z,-88
2023-03-30T14:00:45.871Z,-88
2023-03-30T14:03:39.418Z,-89
2023-03-30T14:06:16.997Z,-87
2023-03-30T14:08:50.240Z,-88
2023-03-30T14:11:22.824Z,-87
2023-03-30T14:13:54.350Z,-86
2023-03-30T14:16:27.334Z,-87
2023-03-30T14:19:13.777Z,-87
2023-03-30T14:21:46.412Z,-86
2023-03-30T14:24:19.905Z,-88
2023-03-30T14:26:50.779Z,-86
2023-03-30T14:29:31.360Z,-87
2023-03-30T14:34:36.043Z,-87
2023-03-30T14:37:07.745Z,-87
2023-03-30T14:39:42.499Z,-86
2023-03-30T14:42:18.901Z,-86
2023-03-30T14:44:51.613Z,-87
2023-03-30T14:47:24.123Z,-85
2023-03-30T14:49:56.263Z,-83
2023-03-30T14:52:30.137Z,-85
2023-03-30T14:55:06.626Z,-85
2023-03-30T14:57:44.468Z,-87
2023-03-30T15:00:18.342Z,-86
2023-03-30T15:02:49.617Z,-86
2023-03-30T15:05:20.104Z,-86
2023-03-30T15:07:52.020Z,-85
2023-03-30T15:10:28.496Z,-85
2023-03-30T15:12:59.266Z,-85
2023-03-30T15:15:32.887Z,-85
2023-03-30T15:18:04.573Z,-85
2023-03-30T15:20:34.077Z,-86
2023-03-30T15:23:03.035Z,-86
2023-03-30T15:25:36.512Z,-85
2023-03-30T15:28:08.790Z,-86
2023-03-30T15:30:42.565Z,-84
2023-03-30T15:33:23.603Z,-86
2023-03-30T15:35:54.201Z,-86
2023-03-30T15:38:34.106Z,-86
2023-03-30T15:41:05.802Z,-87
2023-03-30T15:43:54.288Z,-85
2023-03-30T15:46:23.204Z,-87
2023-03-30T15:48:54.800Z,-86
2023-03-30T15:51:30.441Z,-87
2023-03-30T15:54:04.381Z,-86
2023-03-30T15:56:39.488Z,-87
2023-03-30T15:59:16.021Z,-86
2023-03-30T16:01:52.859Z,-85
2023-03-30T16:04:24.136Z,-86
2023-03-30T16:06:53.605Z,-85
2023-03-30T16:09:22.966Z,-86
2023-03-30T16:11:53.045Z,-86
2023-03-30T16:14:22.702Z,-86
2023-03-30T16:16:51.820Z,-85
2023-03-30T16:19:21.036Z,-86
2023-03-30T16:21:49.793Z,-86
2023-03-30T16:24:18.320Z,-86
2023-03-30T16:26:46.842Z,-86
2023-03-30T16:29:22.849Z,-86
2023-03-30T16:31:53.024Z,-85
2023-03-30T16:34:22.993Z,-85
2023-03-30T16:36:55.683Z,-86
2023-03-30T16:39:27.688Z,-86
2023-03-30T16:41:57.380Z,-87
2023-03-30T16:44:27.457Z,-85
2023-03-30T16:46:55.995Z,-86
2023-03-30T16:49:27.099Z,-86
2023-03-30T16:51:57.928Z,-85
2023-03-30T16:54:32.678Z,-86
2023-03-30T16:57:02.501Z,-86
2023-03-30T16:59:34.161Z,-86
2023-03-30T17:02:03.517Z,-86
2023-03-30T17:04:32.249Z,-87
2023-03-30T17:07:00.670Z,-85
2023-03-30T17:09:30.036Z,-86
2023-03-30T17:11:58.719Z,-86
2023-03-30T17:14:27.803Z,-86
2023-03-30T17:16:57.921Z,-86
2023-03-30T17:19:28.051Z,-86
2023-03-30T17:21:56.711Z,-87
2023-03-30T17:24:25.366Z,-86
2023-03-30T17:26:53.892Z,-86
2023-03-30T17:29:22.322Z,-86
2023-03-30T17:31:50.932Z,-87
2023-03-30T17:34:20.916Z,-87
2023-03-30T17:36:49.390Z,-86
2023-03-30T17:39:17.843Z,-85
2023-03-30T17:41:46.265Z,-85
2023-03-30T17:44:14.762Z,-86
2023-03-30T17:46:43.934Z,-84
2023-03-30T17:49:18.247Z,-85
2023-03-30T17:51:48.292Z,-85
2023-03-30T17:54:16.804Z,-85
2023-03-30T17:56:45.492Z,-85
2023-03-30T17:59:14.270Z,-86
2023-03-30T18:01:43.420Z,-85
2023-03-30T18:04:12.066Z,-86
2023-03-30T18:06:41.311Z,-88
2023-03-30T18:09:17.443Z,-88
2023-03-30T18:11:46.346Z,-87
2023-03-30T18:14:14.873Z,-89
2023-03-30T18:16:45.570Z,-86
2023-03-30T18:19:14.502Z,-88
2023-03-30T18:21:43.075Z,-87
2023-03-30T18:24:13.030Z,-87
2023-03-30T18:26:43.715Z,-87
2023-03-30T18:29:23.444Z,-85
2023-03-30T18:31:51.989Z,-86
2023-03-30T18:34:20.704Z,-87
2023-03-30T18:36:49.246Z,-87
2023-03-30T18:39:23.421Z,-87
2023-03-30T18:41:52.222Z,-87
2023-03-30T18:44:21.614Z,-87
2023-03-30T18:46:52.629Z,-87
2023-03-30T18:49:23.785Z,-88
2023-03-30T18:51:53.435Z,-87
2023-03-30T18:54:23.963Z,-87
2023-03-30T18:56:52.662Z,-86
2023-03-30T18:59:23.095Z,-86
2023-03-30T19:01:54.657Z,-90
2023-03-30T19:04:23.551Z,-91
2023-03-30T19:06:53.153Z,-86
2023-03-30T19:09:36.488Z,-86
2023-03-30T19:12:14.815Z,-86
2023-03-30T19:14:43.545Z,-86
2023-03-30T19:17:12.146Z,-85
2023-03-30T19:19:40.630Z,-85
2023-03-30T19:22:09.385Z,-84
2023-03-30T19:24:39.393Z,-85
2023-03-30T19:27:08.089Z,-85
2023-03-30T19:29:36.785Z,-83
2023-03-30T19:32:05.527Z,-85
2023-03-30T19:34:34.206Z,-86
2023-03-30T19:37:02.834Z,-86
2023-03-30T19:39:31.516Z,-86
2023-03-30T19:42:02.279Z,-86
2023-03-30T19:44:30.929Z,-87
2023-03-30T19:46:59.443Z,-86
2023-03-30T19:49:28.389Z,-88
2023-03-30T19:51:59.725Z,-88
2023-03-30T19:54:28.564Z,-87
2023-03-30T19:56:57.164Z,-88
2023-03-30T19:59:29.057Z,-88
2023-03-30T20:01:57.973Z,-88
2023-03-30T20:04:26.828Z,-88
2023-03-30T20:06:56.285Z,-88
2023-03-30T20:09:25.754Z,-88
2023-03-30T20:11:55.858Z,-90
2023-03-30T20:14:26.674Z,-91
2023-03-30T20:16:56.975Z,-92
2023-03-30T20:19:30.418Z,-91
2023-03-30T20:22:00.324Z,-90
2023-03-30T20:24:32.313Z,-91
2023-03-30T20:27:06.118Z,-92
2023-03-30T20:30:03.409Z,-92
2023-03-30T20:32:33.537Z,-92
2023-03-30T20:35:18.793Z,-91
2023-03-30T20:37:48.153Z,-90
2023-03-30T20:40:17.480Z,-87
2023-03-30T20:42:48.337Z,-88
2023-03-30T20:45:26.309Z,-88
2023-03-30T20:47:55.970Z,-90
2023-03-30T20:50:26.070Z,-91
2023-03-30T20:52:54.925Z,-89
2023-03-30T20:55:23.659Z,-87
2023-03-30T20:57:52.724Z,-86
2023-03-30T21:00:24.299Z,-88
2023-03-30T21:02:54.296Z,-89
2023-03-30T21:05:23.169Z,-89
2023-03-30T21:07:55.261Z,-89
2023-03-30T21:10:24.511Z,-88
2023-03-30T21:12:53.437Z,-88
2023-03-30T21:15:24.102Z,-88
2023-03-30T21:17:53.087Z,-87
2023-03-30T21:20:22.043Z,-87
2023-03-30T21:22:50.697Z,-88
2023-03-30T21:25:19.896Z,-89
2023-03-30T21:27:48.937Z,-90
2023-03-30T21:30:18.047Z,-88
2023-03-30T21:32:48.203Z,-88
2023-03-30T21:35:17.099Z,-89
2023-03-30T21:37:45.881Z,-88
2023-03-30T21:40:15.260Z,-88
2023-03-30T21:42:44.254Z,-87
2023-03-30T21:45:14.538Z,-87
2023-03-30T21:47:43.307Z,-86
2023-03-30T21:50:13.687Z,-87
2023-03-30T21:52:42.506Z,-88
2023-03-30T21:55:11.394Z,-88
2023-03-30T21:57:40.037Z,-88
2023-03-30T22:00:11.694Z,-89
2023-03-30T22:02:40.689Z,-89
2023-03-30T22:05:09.939Z,-88
2023-03-30T22:07:40.825Z,-89
2023-03-30T22:10:12.847Z,-88
2023-03-30T22:12:41.958Z,-89
2023-03-30T22:15:12.256Z,-91
2023-03-30T22:17:42.772Z,-87
2023-03-30T22:20:13.173Z,-88
2023-03-30T22:22:43.836Z,-88
2023-03-30T22:25:12.781Z,-87
2023-03-30T22:27:41.815Z,-88
2023-03-30T22:30:12.092Z,-87
2023-03-30T22:32:40.899Z,-88
2023-03-30T22:35:11.413Z,-87
2023-03-30T22:37:40.238Z,-86
2023-03-30T22:40:12.074Z,-87
2023-03-30T22:42:40.697Z,-88
2023-03-30T22:45:11.529Z,-88
2023-03-30T22:47:40.226Z,-87
2023-03-30T22:50:10.541Z,-87
2023-03-30T22:52:39.349Z,-87
2023-03-30T22:55:10.838Z,-87
2023-03-30T22:57:39.695Z,-88
2023-03-30T23:00:10.649Z,-87
2023-03-30T23:02:40.058Z,-88
2023-03-30T23:05:10.102Z,-88
2023-03-30T23:07:40.492Z,-88
2023-03-30T23:10:15.417Z,-88
2023-03-30T23:12:44.830Z,-89
2023-03-30T23:15:14.554Z,-88
2023-03-30T23:17:43.407Z,-88
2023-03-30T23:20:13.279Z,-88
2023-03-30T23:22:42.319Z,-88
2023-03-30T23:25:12.513Z,-87
2023-03-30T23:27:41.227Z,-89
2023-03-30T23:30:11.412Z,-89
2023-03-30T23:32:39.945Z,-89
2023-03-30T23:35:09.585Z,-89
2023-03-30T23:37:38.419Z,-88
2023-03-30T23:40:09.673Z,-89
2023-03-30T23:42:40.017Z,-89
2023-03-30T23:45:10.263Z,-88
2023-03-30T23:47:39.096Z,-88
2023-03-30T23:50:10.315Z,-89
2023-03-30T23:52:38.980Z,-88
2023-03-30T23:55:08.012Z,-88
2023-03-30T23:57:38.031Z,-88
